Time;durP1;ratioP1;P1;durP2;ratioP2;P2;SDS_P1;SDS_P2;PMS_P1;PMS_P2;Temp;Humidity;BMP_temperature;BMP_pressure;BME280_temperature;BME280_humidity;BME280_pressure;Samples;Min_cycle;Max_cycle;Signal;HPM_P1;HPM_P2
2022/03/19 00:00:58;;;;;;;;;;;;;;;17.76;47.50;104629.50;6312051;22;20216;-78
2022/03/19 00:03:24;;;;;;;;;;;;;;;17.76;47.45;104637.31;6313211;22;20310;-78
2022/03/19 00:05:49;;;;;;;;;;;;;;;17.76;47.23;104632.09;6312544;22;19910;-78
2022/03/19 00:08:17;;;;;;;;;;;;;;;17.76;47.42;104629.50;6340467;22;20285;-78
2022/03/19 00:10:43;;;;;;;;;;;;;;;17.74;47.38;104628.50;6314341;22;19997;-78
2022/03/19 00:13:10;;;;;;;;;;;;;;;17.74;47.37;104632.00;6314185;22;19937;-78
2022/03/19 00:15:35;;;;;;;;;;;;;;;17.75;47.36;104628.59;6314964;22;19915;-78
2022/03/19 00:18:00;;;;;;;;;;;;;;;17.73;47.03;104624.13;6314661;22;19959;-79
2022/03/19 00:20:26;;;;;;;;;;;;;;;17.72;47.33;104625.81;6314267;22;19910;-79
2022/03/19 00:22:51;;;;;;;;;;;;;;;17.73;47.43;104627.63;6342017;22;19914;-78
2022/03/19 00:25:16;;;;;;;;;;;;;;;17.72;47.28;104628.44;6316632;22;19911;-79
2022/03/19 00:27:42;;;;;;;;;;;;;;;17.72;47.17;104628.44;6320907;22;19906;-79
2022/03/19 00:30:08;;;;;;;;;;;;;;;17.72;47.34;104632.75;6296163;22;20251;-79
2022/03/19 00:32:33;;;;;;;;;;;;;;;17.71;47.31;104626.66;6322518;22;19965;-79
2022/03/19 00:34:59;;;;;;;;;;;;;;;17.70;47.24;104627.47;6320391;22;19910;-79
2022/03/19 00:37:24;;;;;;;;;;;;;;;17.71;47.26;104626.66;6288594;22;19976;-78
2022/03/19 00:39:49;;;;;;;;;;;;;;;17.71;47.32;104631.88;6314952;22;19906;-78
2022/03/19 00:42:15;;;;;;;;;;;;;;;17.71;47.25;104626.66;6288469;22;19953;-79
2022/03/19 00:44:40;;;;;;;;;;;;;;;17.70;47.21;104630.06;6314063;22;19913;-79
2022/03/19 00:47:05;;;;;;;;;;;;;;;17.71;47.22;104633.59;6314324;22;20372;-78
2022/03/19 00:49:30;;;;;;;;;;;;;;;17.68;47.23;104632.63;6287962;22;20330;-78
2022/03/19 00:51:56;;;;;;;;;;;;;;;17.67;47.06;104640.34;6341492;22;19948;-79
2022/03/19 00:54:21;;;;;;;;;;;;;;;17.68;47.27;104643.03;6313926;22;20319;-78
2022/03/19 00:56:47;;;;;;;;;;;;;;;17.67;47.18;104633.41;6288018;22;19911;-78
2022/03/19 00:59:12;;;;;;;;;;;;;;;17.68;47.26;104642.13;6313941;22;19910;-78
2022/03/19 01:01:38;;;;;;;;;;;;;;;17.68;47.13;104623.88;6313842;22;19934;-78
2022/03/19 01:04:03;;;;;;;;;;;;;;;17.68;47.17;104626.47;6314064;22;19976;-78
2022/03/19 01:06:29;;;;;;;;;;;;;;;17.66;47.10;104626.44;6313727;22;19925;-78
2022/03/19 01:08:54;;;;;;;;;;;;;;;17.66;47.20;104628.16;6288414;22;20337;-82
2022/03/19 01:11:23;;;;;;;;;;;;;;;17.66;46.86;104636.84;6314125;22;19911;-83
2022/03/19 01:13:49;;;;;;;;;;;;;;;17.66;47.17;104625.53;6315338;22;19910;-80
2022/03/19 01:16:17;;;;;;;;;;;;;;;17.66;47.06;104622.94;6314819;22;19911;-78
2022/03/19 01:18:42;;;;;;;;;;;;;;;17.65;46.79;104618.53;6288432;22;19910;-78
2022/03/19 01:21:08;;;;;;;;;;;;;;;17.64;46.96;104619.38;6313461;22;19961;-83
2022/03/19 01:23:33;;;;;;;;;;;;;;;17.63;46.90;104613.22;6314893;22;19906;-78
2022/03/19 01:25:58;;;;;;;;;;;;;;;17.64;46.97;104608.94;6287843;22;19911;-78
2022/03/19 01:28:24;;;;;;;;;;;;;;;17.64;46.97;104603.72;6287987;22;19910;-83
2022/03/19 01:30:49;;;;;;;;;;;;;;;17.63;46.82;104600.22;6288118;22;19932;-84
2022/03/19 01:33:14;;;;;;;;;;;;;;;17.64;46.96;104602.03;6288277;22;19918;-83
2022/03/19 01:35:39;;;;;;;;;;;;;;;17.63;46.65;104607.13;6314045;22;19911;-83
2022/03/19 01:38:05;;;;;;;;;;;;;;;17.63;46.79;104599.31;6313961;22;20247;-84
2022/03/19 01:40:30;;;;;;;;;;;;;;;17.62;46.83;104606.25;6314043;22;19918;-83
2022/03/19 01:42:57;;;;;;;;;;;;;;;17.62;46.79;104603.66;6314096;22;19956;-83
2022/03/19 01:45:23;;;;;;;;;;;;;;;17.62;46.90;104603.66;6288249;22;19957;-83
2022/03/19 01:47:49;;;;;;;;;;;;;;;17.61;46.84;104594.03;6341454;22;20311;-83
2022/03/19 01:50:16;;;;;;;;;;;;;;;17.62;46.61;104595.84;6314421;22;19906;-78
2022/03/19 01:52:41;;;;;;;;;;;;;;;17.61;46.71;104599.25;6313496;22;19906;-78
2022/03/19 01:55:07;;;;;;;;;;;;;;;17.60;46.70;104597.47;6287545;22;19911;-78
2022/03/19 01:57:37;;;;;;;;;;;;;;;17.60;46.80;104594.88;6313258;22;19910;-78
2022/03/19 02:00:03;;;;;;;;;;;;;;;17.61;46.90;104587.94;6313166;22;20282;-78
2022/03/19 02:02:28;;;;;;;;;;;;;;;17.61;46.76;104582.72;6313351;22;20009;-78
2022/03/19 02:04:54;;;;;;;;;;;;;;;17.60;46.56;104580.94;6313812;22;20319;-78
2022/03/19 02:07:20;;;;;;;;;;;;;;;17.60;46.72;104580.94;6313834;22;19934;-78
2022/03/19 02:09:46;;;;;;;;;;;;;;;17.59;46.71;104579.16;6340768;22;20074;-78
2022/03/19 02:12:11;;;;;;;;;;;;;;;17.59;46.71;104581.75;6340423;22;19919;-78
2022/03/19 02:14:37;;;;;;;;;;;;;;;17.58;46.63;104578.25;6313281;22;19911;-78
2022/03/19 02:17:04;;;;;;;;;;;;;;;17.58;46.63;104570.44;6313171;22;20311;-78
2022/03/19 02:19:29;;;;;;;;;;;;;;;17.57;46.55;104576.50;6287481;22;19934;-78
2022/03/19 02:21:55;;;;;;;;;;;;;;;17.59;46.43;104579.16;6312953;22;19911;-78
2022/03/19 02:27:05;;;;;;;;;;;;;;;17.57;46.65;104575.56;6317444;22;19934;-78
2022/03/19 02:29:31;;;;;;;;;;;;;;;17.58;46.50;104572.16;6313233;22;20319;-78
2022/03/19 02:32:00;;;;;;;;;;;;;;;17.56;46.50;104560.78;6340563;22;19911;-78
2022/03/19 02:34:26;;;;;;;;;;;;;;;17.56;46.40;104564.28;6341151;22;19907;-78
2022/03/19 02:36:51;;;;;;;;;;;;;;;17.58;46.57;104561.75;6341175;22;19937;-78
2022/03/19 02:39:21;;;;;;;;;;;;;;;17.57;46.32;104557.34;6312922;22;19910;-78
2022/03/19 02:41:47;;;;;;;;;;;;;;;17.57;46.38;104559.94;6312860;22;20343;-78
2022/03/19 02:44:13;;;;;;;;;;;;;;;17.56;46.27;104552.97;6340417;22;19907;-78
2022/03/19 02:46:49;;;;;;;;;;;;;;;17.54;46.50;104560.69;6312801;22;19913;-78
2022/03/19 02:49:15;;;;;;;;;;;;;;;17.54;46.34;104557.19;6340531;22;19906;-78
2022/03/19 02:51:42;;;;;;;;;;;;;;;17.54;46.30;104562.41;6313418;22;19930;-78
2022/03/19 02:54:08;;;;;;;;;;;;;;;17.54;46.29;104559.81;6340584;22;20303;-78
2022/03/19 02:56:34;;;;;;;;;;;;;;;17.53;46.36;104553.72;6313012;22;19911;-79
2022/03/19 02:59:12;;;;;;;;;;;;;;;17.52;46.31;104551.91;6316516;22;19973;-79
2022/03/19 03:01:38;;;;;;;;;;;;;;;17.53;46.31;104545.91;6313451;22;19911;-78
2022/03/19 03:04:03;;;;;;;;;;;;;;;17.52;46.21;104549.31;6286972;22;19933;-78
2022/03/19 03:06:33;;;;;;;;;;;;;;;17.52;46.27;104546.69;6340676;22;19910;-78
2022/03/19 03:08:58;;;;;;;;;;;;;;;17.53;46.27;104539.78;6312887;22;19960;-78
2022/03/19 03:11:23;;;;;;;;;;;;;;;17.52;46.33;104543.22;6286680;22;19914;-78
2022/03/19 03:13:48;;;;;;;;;;;;;;;17.52;46.33;104545.81;6286710;22;19959;-78
2022/03/19 03:16:13;;;;;;;;;;;;;;;17.51;46.32;104544.00;6340447;22;19913;-78
2022/03/19 03:18:39;;;;;;;;;;;;;;;17.51;46.24;104547.53;6313059;22;19917;-78
2022/03/19 03:21:04;;;;;;;;;;;;;;;17.51;46.16;104538.81;6286972;22;19997;-78
2022/03/19 03:23:31;;;;;;;;;;;;;;;17.50;46.09;104535.31;6313192;22;19956;-78
2022/03/19 03:25:56;;;;;;;;;;;;;;;17.50;46.19;104537.91;6313149;22;19960;-78
2022/03/19 03:28:22;;;;;;;;;;;;;;;17.50;45.90;104542.25;6312806;22;19940;-78
2022/03/19 03:30:47;;;;;;;;;;;;;;;17.48;46.21;104540.47;6312610;22;20242;-78
2022/03/19 03:33:13;;;;;;;;;;;;;;;17.49;46.01;104541.34;6287585;22;19911;-79
2022/03/19 03:35:38;;;;;;;;;;;;;;;17.49;46.11;104541.34;6313086;22;19980;-78
2022/03/19 03:38:03;;;;;;;;;;;;;;;17.49;46.06;104546.56;6286860;22;19910;-78
2022/03/19 03:40:28;;;;;;;;;;;;;;;17.48;45.92;104540.47;6312286;22;20001;-78
2022/03/19 03:42:54;;;;;;;;;;;;;;;17.48;45.92;104536.94;6312626;22;19914;-79
2022/03/19 03:45:20;;;;;;;;;;;;;;;17.47;46.02;104537.78;6340383;22;19944;-78
2022/03/19 03:47:45;;;;;;;;;;;;;;;17.47;46.09;104548.19;6342360;22;19911;-79
2022/03/19 03:50:11;;;;;;;;;;;;;;;17.46;46.08;104542.09;6318001;22;19911;-78
2022/03/19 03:52:36;;;;;;;;;;;;;;;17.45;46.00;104535.09;6292826;22;19993;-79
2022/03/19 03:55:03;;;;;;;;;;;;;;;17.46;45.95;104542.09;6316849;22;20028;-78
2022/03/19 03:57:29;;;;;;;;;;;;;;;17.46;46.02;104536.88;6313218;22;19910;-78
2022/03/19 03:59:54;;;;;;;;;;;;;;;17.45;46.06;104535.09;6313093;22;20369;-78
2022/03/19 04:02:19;;;;;;;;;;;;;;;17.45;46.06;104540.28;6340435;22;20324;-78
2022/03/19 04:04:45;;;;;;;;;;;;;;;17.45;45.97;104536.81;6313029;22;19911;-78
2022/03/19 04:07:10;;;;;;;;;;;;;;;17.44;45.91;104529.78;6312554;22;19921;-78
2022/03/19 04:09:35;;;;;;;;;;;;;;;17.44;45.83;104537.59;6312320;22;20097;-78
2022/03/19 04:12:03;;;;;;;;;;;;;;;17.44;46.05;104529.78;6312409;22;19918;-78
2022/03/19 04:14:28;;;;;;;;;;;;;;;17.43;46.10;104528.91;6287356;22;19936;-83
2022/03/19 04:16:53;;;;;;;;;;;;;;;17.45;46.01;104536.81;6340524;22;19946;-83
2022/03/19 04:19:19;;;;;;;;;;;;;;;17.43;45.95;104534.13;6313569;22;19914;-83
2022/03/19 04:21:44;;;;;;;;;;;;;;;17.43;45.83;104525.41;6340537;22;19940;-82
2022/03/19 04:24:09;;;;;;;;;;;;;;;17.42;45.88;104529.75;6340718;22;20001;-82
2022/03/19 04:26:34;;;;;;;;;;;;;;;17.42;45.78;104534.94;6312627;22;19942;-83
2022/03/19 04:29:00;;;;;;;;;;;;;;;17.43;45.89;104541.03;6312923;22;20307;-83
2022/03/19 04:31:25;;;;;;;;;;;;;;;17.42;45.85;104536.63;6287042;22;19960;-83
2022/03/19 04:33:50;;;;;;;;;;;;;;;17.42;45.75;104545.38;6312861;22;19906;-83
2022/03/19 04:36:30;;;;;;;;;;;;;;;17.41;45.80;104532.25;6286964;22;19922;-82
2022/03/19 04:39:00;;;;;;;;;;;;;;;17.39;45.75;104529.56;6289670;22;19910;-83
2022/03/19 04:41:26;;;;;;;;;;;;;;;17.39;45.93;104532.16;6314267;22;19918;-82
2022/03/19 04:43:51;;;;;;;;;;;;;;;17.40;45.93;104533.97;6317923;22;19906;-83
2022/03/19 04:46:16;;;;;;;;;;;;;;;17.39;45.85;104537.38;6316264;22;19913;-83
2022/03/19 04:48:45;;;;;;;;;;;;;;;17.39;45.79;104523.47;6313790;22;19952;-83
2022/03/19 04:51:12;;;;;;;;;;;;;;;17.38;45.79;104519.09;6312820;22;19948;-82
2022/03/19 04:53:38;;;;;;;;;;;;;;;17.38;45.62;104524.31;6340333;22;19910;-82
2022/03/19 04:56:04;;;;;;;;;;;;;;;17.37;45.78;104517.28;6314401;22;19913;-82
2022/03/19 04:58:29;;;;;;;;;;;;;;;17.38;45.84;104521.69;6314626;22;19907;-82
2022/03/19 05:00:54;;;;;;;;;;;;;;;17.38;45.64;104521.69;6314966;22;20002;-82
2022/03/19 05:03:19;;;;;;;;;;;;;;;17.37;45.71;104520.78;6342541;22;19925;-83
2022/03/19 05:05:45;;;;;;;;;;;;;;;17.36;45.70;104521.63;6289096;22;19911;-83
2022/03/19 05:08:10;;;;;;;;;;;;;;;17.37;45.85;104522.50;6314730;22;19939;-83
2022/03/19 05:13:20;;;;;;;;;;;;;;;17.37;45.83;104522.50;6319776;22;20374;-82
2022/03/19 05:15:45;;;;;;;;;;;;;;;17.35;45.61;104521.53;6317011;22;19914;-82
2022/03/19 05:18:11;;;;;;;;;;;;;;;17.34;45.64;104510.22;6314747;22;19942;-83
2022/03/19 05:20:36;;;;;;;;;;;;;;;17.35;45.65;104517.22;6341775;22;20319;-83
2022/03/19 05:23:02;;;;;;;;;;;;;;;17.33;45.70;104521.44;6314342;22;19911;-83
2022/03/19 05:25:27;;;;;;;;;;;;;;;17.35;45.57;104524.13;6314365;22;20312;-83
2022/03/19 05:27:52;;;;;;;;;;;;;;;17.35;45.94;104522.41;6341922;22;19917;-82
2022/03/19 05:30:18;;;;;;;;;;;;;;;17.34;45.72;104518.03;6314812;22;19910;-82
2022/03/19 05:32:43;;;;;;;;;;;;;;;17.34;45.71;104523.25;6314226;22;19917;-83
2022/03/19 05:35:08;;;;;;;;;;;;;;;17.33;45.43;104517.97;6341450;22;19911;-82
2022/03/19 05:37:34;;;;;;;;;;;;;;;17.33;45.63;104515.34;6341786;22;19952;-82
2022/03/19 05:40:00;;;;;;;;;;;;;;;17.32;45.52;104514.47;6315662;22;20021;-83
2022/03/19 05:42:26;;;;;;;;;;;;;;;17.32;45.52;104511.88;6289751;22;19944;-83
2022/03/19 05:44:51;;;;;;;;;;;;;;;17.33;45.60;104516.25;6342201;22;19985;-83
2022/03/19 05:47:16;;;;;;;;;;;;;;;17.32;45.49;104522.28;6288598;22;20357;-82
2022/03/19 05:49:42;;;;;;;;;;;;;;;17.31;45.54;104515.28;6341635;22;20327;-83
2022/03/19 05:52:07;;;;;;;;;;;;;;;17.33;45.50;104528.38;6313886;22;19938;-83
2022/03/19 05:54:32;;;;;;;;;;;;;;;17.33;45.44;104528.38;6341297;22;20350;-82
2022/03/19 05:56:58;;;;;;;;;;;;;;;17.33;45.40;104524.03;6341567;22;20372;-83
2022/03/19 05:59:23;;;;;;;;;;;;;;;17.32;45.44;104514.47;6313969;22;19907;-83
2022/03/19 06:01:49;;;;;;;;;;;;;;;17.34;45.47;104519.75;6313706;22;19911;-83
2022/03/19 06:04:15;;;;;;;;;;;;;;;17.34;45.57;104522.38;6314333;22;20373;-82
2022/03/19 06:06:41;;;;;;;;;;;;;;;17.34;45.51;104519.75;6341170;22;19906;-83
2022/03/19 06:09:06;;;;;;;;;;;;;;;17.34;45.55;104525.84;6341094;22;20234;-82
2022/03/19 06:11:31;;;;;;;;;;;;;;;17.35;45.37;104526.75;6313944;22;19911;-82
2022/03/19 06:13:57;;;;;;;;;;;;;;;17.35;45.49;104531.94;6313834;22;19919;-82
2022/03/19 06:16:22;;;;;;;;;;;;;;;17.36;45.34;104524.22;6341126;22;19911;-82
2022/03/19 06:18:50;;;;;;;;;;;;;;;17.36;45.39;104525.94;6313922;22;19910;-83
2022/03/19 06:21:15;;;;;;;;;;;;;;;17.37;45.30;104525.09;6313981;22;19915;-83
2022/03/19 06:23:41;;;;;;;;;;;;;;;17.36;45.35;104525.94;6314420;22;19910;-82
2022/03/19 06:26:06;;;;;;;;;;;;;;;17.36;45.24;104521.63;6288631;22;19968;-82
2022/03/19 06:28:31;;;;;;;;;;;;;;;17.37;45.26;104515.56;6341801;22;19911;-85
2022/03/19 06:30:57;;;;;;;;;;;;;;;17.38;45.30;104525.19;6314046;22;19910;-82
2022/03/19 06:33:22;;;;;;;;;;;;;;;17.40;45.13;104526.16;6341624;22;20277;-83
2022/03/19 06:38:31;;;;;;;;;;;;;;;17.41;45.17;104524.44;6318300;22;19939;-83
2022/03/19 06:40:58;;;;;;;;;;;;;;;17.42;45.15;104528.81;6344886;22;19938;-84
2022/03/19 06:43:23;;;;;;;;;;;;;;;17.42;45.06;104528.81;6293115;22;19954;-83
2022/03/19 06:45:48;;;;;;;;;;;;;;;17.43;45.14;104531.50;6317400;22;19918;-84
2022/03/19 06:48:13;;;;;;;;;;;;;;;17.45;45.16;104534.19;6291574;22;19910;-84
2022/03/19 06:50:39;;;;;;;;;;;;;;;17.44;44.90;104530.72;6315062;22;19910;-84
2022/03/19 06:53:04;;;;;;;;;;;;;;;17.45;45.17;104532.47;6314390;22;19907;-83
2022/03/19 06:55:29;;;;;;;;;;;;;;;17.45;45.08;104529.00;6341615;22;19907;-78
2022/03/19 06:57:56;;;;;;;;;;;;;;;17.47;44.91;104532.56;6313317;22;19911;-78
2022/03/19 07:00:21;;;;;;;;;;;;;;;17.53;44.98;104534.56;6287445;22;19915;-78
2022/03/19 07:02:47;;;;;;;;;;;;;;;17.62;44.88;104533.31;6312795;22;19967;-79
2022/03/19 07:05:13;;;;;;;;;;;;;;;17.78;44.34;104534.94;6340563;22;19914;-78
2022/03/19 07:07:39;;;;;;;;;;;;;;;18.03;43.85;104529.25;6312879;22;20282;-78
2022/03/19 07:10:05;;;;;;;;;;;;;;;18.38;43.10;104539.50;6313084;22;19906;-79
2022/03/19 07:12:30;;;;;;;;;;;;;;;18.68;42.42;104529.56;6312817;22;19960;-79
2022/03/19 07:14:56;;;;;;;;;;;;;;;18.88;42.03;104534.00;6312048;22;19923;-78
2022/03/19 07:17:21;;;;;;;;;;;;;;;19.10;41.49;104532.31;6312019;22;19911;-78
2022/03/19 07:19:46;;;;;;;;;;;;;;;19.01;41.31;104538.03;6286168;22;19911;-78
2022/03/19 07:22:11;;;;;;;;;;;;;;;19.10;41.29;104524.50;6286977;22;19921;-76
2022/03/19 07:24:37;;;;;;;;;;;;;;;19.18;40.85;104527.41;6312517;22;19910;-76
2022/03/19 07:27:02;;;;;;;;;;;;;;;19.35;40.68;104522.91;6286631;22;19958;-77
2022/03/19 07:29:27;;;;;;;;;;;;;;;19.43;40.38;104518.91;6286523;22;19936;-75
2022/03/19 07:31:53;;;;;;;;;;;;;;;19.49;40.18;104513.94;6312431;22;20009;-75
2022/03/19 07:34:18;;;;;;;;;;;;;;;19.59;39.89;104513.44;6286582;22;19910;-75
2022/03/19 07:36:44;;;;;;;;;;;;;;;19.66;39.73;104518.13;6286510;22;19911;-76
2022/03/19 07:39:09;;;;;;;;;;;;;;;19.74;39.65;104510.59;6286423;22;19917;-75
2022/03/19 07:41:48;;;;;;;;;;;;;;;19.64;39.64;104517.16;6312215;22;19911;-76
2022/03/19 07:44:13;;;;;;;;;;;;;;;19.56;39.81;104509.84;6289359;22;20242;-76
2022/03/19 07:46:41;;;;;;;;;;;;;;;19.39;40.19;104510.03;6324857;22;19910;-75
2022/03/19 07:49:07;;;;;;;;;;;;;;;18.78;41.56;104518.75;6346234;22;19921;-76
2022/03/19 07:51:32;;;;;;;;;;;;;;;18.33;42.81;104518.44;6314107;22;19910;-78
2022/03/19 07:53:57;;;;;;;;;;;;;;;18.09;42.97;104524.34;6313035;22;19956;-83
2022/03/19 07:56:24;;;;;;;;;;;;;;;17.98;43.42;104515.09;6340402;22;19934;-84
2022/03/19 07:58:50;;;;;;;;;;;;;;;17.95;43.61;104516.69;6312962;22;19907;-83
2022/03/19 08:01:19;;;;;;;;;;;;;;;18.33;42.79;104508.00;6286585;22;20284;-84
2022/03/19 08:03:45;;;;;;;;;;;;;;;18.64;42.03;104514.59;6286841;22;19917;-83
2022/03/19 08:06:10;;;;;;;;;;;;;;;18.75;41.78;104515.09;6286503;22;19914;-81
2022/03/19 08:08:37;;;;;;;;;;;;;;;18.78;41.54;104518.75;6312426;22;19910;-81
2022/03/19 08:11:02;;;;;;;;;;;;;;;18.88;41.46;104518.34;6312825;22;19911;-82
2022/03/19 08:13:28;;;;;;;;;;;;;;;18.91;41.30;104521.06;6312586;22;19985;-81
2022/03/19 08:15:53;;;;;;;;;;;;;;;18.88;41.32;104517.47;6286359;22;20293;-81
2022/03/19 08:18:19;;;;;;;;;;;;;;;18.85;41.30;104518.19;6312480;22;19918;-82
2022/03/19 08:20:46;;;;;;;;;;;;;;;18.85;41.48;104517.31;6312305;22;19910;-81
2022/03/19 08:23:12;;;;;;;;;;;;;;;18.80;41.54;104511.91;6312296;22;19989;-82
2022/03/19 08:25:38;;;;;;;;;;;;;;;18.80;41.63;104514.50;6312223;22;19911;-82
2022/03/19 08:28:04;;;;;;;;;;;;;;;18.76;41.22;104520.38;6312485;22;19974;-84
2022/03/19 08:30:29;;;;;;;;;;;;;;;18.71;41.73;104517.56;6286074;22;19939;-84
2022/03/19 08:32:55;;;;;;;;;;;;;;;18.68;41.91;104521.75;6314783;22;19911;-83
2022/03/19 08:35:20;;;;;;;;;;;;;;;18.67;41.68;104523.47;6288674;22;20338;-84
2022/03/19 08:37:46;;;;;;;;;;;;;;;18.61;42.01;104523.19;6288922;22;19911;-85
2022/03/19 08:40:17;;;;;;;;;;;;;;;18.57;41.93;104521.25;6314046;22;20346;-78
2022/03/19 08:42:51;;;;;;;;;;;;;;;18.54;42.23;104520.25;6315905;22;19938;-85
2022/03/19 08:45:16;;;;;;;;;;;;;;;18.54;42.20;104523.75;6314273;22;19907;-85
2022/03/19 08:47:41;;;;;;;;;;;;;;;18.53;42.19;104523.66;6314250;22;19911;-83
2022/03/19 08:50:07;;;;;;;;;;;;;;;18.48;42.33;104524.34;6314066;22;19914;-78
2022/03/19 08:52:33;;;;;;;;;;;;;;;18.46;42.27;104522.50;6313827;22;19911;-79
2022/03/19 08:55:00;;;;;;;;;;;;;;;18.43;42.40;104518.03;6313811;22;19906;-78
2022/03/19 08:57:26;;;;;;;;;;;;;;;18.42;42.41;104516.28;6314398;22;20252;-79
2022/03/19 08:59:51;;;;;;;;;;;;;;;18.40;42.35;104511.78;6313786;22;19916;-78
2022/03/19 09:02:16;;;;;;;;;;;;;;;18.38;42.39;104513.44;6313507;22;19925;-80
2022/03/19 09:04:42;;;;;;;;;;;;;;;18.36;42.47;104518.59;6288237;22;19910;-84
2022/03/19 09:07:07;;;;;;;;;;;;;;;18.35;42.54;104515.91;6341175;22;19907;-80
2022/03/19 09:09:32;;;;;;;;;;;;;;;18.32;42.60;104508.84;6287629;22;19917;-79
2022/03/19 09:11:58;;;;;;;;;;;;;;;18.27;42.60;104503.44;6313988;22;19985;-85
2022/03/19 09:14:24;;;;;;;;;;;;;;;18.25;42.70;104494.63;6288149;22;19972;-79
2022/03/19 09:16:49;;;;;;;;;;;;;;;18.23;42.72;104493.69;6288022;22;20277;-79
2022/03/19 09:19:15;;;;;;;;;;;;;;;18.23;42.81;104498.00;6287856;22;20012;-80
2022/03/19 09:21:41;;;;;;;;;;;;;;;18.20;42.82;104511.75;6288353;22;20247;-84
2022/03/19 09:24:06;;;;;;;;;;;;;;;18.16;42.92;104495.91;6312849;22;20335;-84
2022/03/19 09:26:32;;;;;;;;;;;;;;;18.14;42.96;104502.78;6314028;22;19911;-83
2022/03/19 09:28:57;;;;;;;;;;;;;;;18.11;43.02;104492.22;6341227;22;19949;-84
2022/03/19 09:31:23;;;;;;;;;;;;;;;18.07;43.17;104497.31;6287843;22;19910;-79
2022/03/19 09:33:48;;;;;;;;;;;;;;;18.05;43.20;104493.72;6287952;22;20334;-81
2022/03/19 09:36:14;;;;;;;;;;;;;;;18.04;43.17;104489.31;6288205;22;19918;-79
2022/03/19 09:38:40;;;;;;;;;;;;;;;18.02;43.26;104479.66;6287931;22;19911;-83
2022/03/19 09:41:07;;;;;;;;;;;;;;;18.00;43.27;104476.97;6313399;22;19911;-78
2022/03/19 09:43:32;;;;;;;;;;;;;;;17.99;43.45;104467.38;6341378;22;19914;-78
2022/03/19 09:45:57;;;;;;;;;;;;;;;17.96;43.24;104475.03;6287629;22;19942;-79
2022/03/19 09:48:23;;;;;;;;;;;;;;;17.95;43.40;104470.66;6287388;22;20385;-78
2022/03/19 09:50:52;;;;;;;;;;;;;;;17.95;43.46;104461.94;6313758;22;19911;-84
2022/03/19 09:53:19;;;;;;;;;;;;;;;17.93;43.57;104454.06;6313764;22;19914;-80
2022/03/19 09:55:45;;;;;;;;;;;;;;;17.93;43.53;104463.59;6313476;22;19985;-79
2022/03/19 09:58:12;;;;;;;;;;;;;;;17.91;43.80;104455.69;6313851;22;20319;-84
2022/03/19 10:00:37;;;;;;;;;;;;;;;17.91;43.40;104455.69;6288210;22;19940;-83
2022/03/19 10:03:06;;;;;;;;;;;;;;;17.90;43.62;104451.31;6341397;22;20375;-84
2022/03/19 10:11:01;;;;;;;;;;;;;;;17.88;43.59;104437.31;6342160;22;19913;-84
2022/03/19 10:13:26;;;;;;;;;;;;;;;17.86;43.69;104432.03;6313276;22;19914;-79
2022/03/19 10:15:52;;;;;;;;;;;;;;;17.86;43.64;104439.84;6313076;22;19972;-83
2022/03/19 10:18:17;;;;;;;;;;;;;;;17.86;43.45;104419.00;6313440;22;19917;-83
2022/03/19 10:20:43;;;;;;;;;;;;;;;17.86;43.25;104419.00;6313679;22;20015;-84
2022/03/19 10:23:08;;;;;;;;;;;;;;;17.86;43.37;104419.00;6340933;22;19912;-83
2022/03/19 10:25:33;;;;;;;;;;;;;;;17.85;43.51;104418.94;6313478;22;19910;-82
2022/03/19 10:27:59;;;;;;;;;;;;;;;17.86;43.52;104412.91;6287510;22;19910;-83
2022/03/19 10:30:28;;;;;;;;;;;;;;;17.85;43.37;104403.28;6314204;22;19907;-85
2022/03/19 10:32:53;;;;;;;;;;;;;;;17.84;43.36;104402.41;6291230;22;20285;-84
2022/03/19 10:35:28;;;;;;;;;;;;;;;17.84;43.34;104404.13;6293697;22;19914;-84
2022/03/19 10:37:53;;;;;;;;;;;;;;;17.85;43.07;104400.69;6349355;22;19907;-84
2022/03/19 10:40:19;;;;;;;;;;;;;;;17.83;43.09;104390.22;6347235;22;20278;-84
2022/03/19 10:42:44;;;;;;;;;;;;;;;17.84;43.00;104385.88;6317268;22;19929;-83
2022/03/19 10:45:14;;;;;;;;;;;;;;;17.82;43.22;104385.81;6290032;22;19963;-84
2022/03/19 10:47:41;;;;;;;;;;;;;;;17.81;43.08;104378.81;6342581;22;20265;-85
2022/03/19 10:50:06;;;;;;;;;;;;;;;17.80;43.21;104384.81;6316176;22;19911;-78
2022/03/19 10:52:33;;;;;;;;;;;;;;;17.81;43.22;104368.38;6313825;22;20354;-83
2022/03/19 10:55:03;;;;;;;;;;;;;;;17.80;43.21;104361.38;6313220;22;19907;-84
2022/03/19 10:57:29;;;;;;;;;;;;;;;17.80;43.10;104358.75;6313242;22;19907;-84
2022/03/19 10:59:54;;;;;;;;;;;;;;;17.81;42.96;104355.34;6287446;22;19997;-79
2022/03/19 11:02:20;;;;;;;;;;;;;;;17.81;42.95;104357.97;6312649;22;19914;-79
2022/03/19 11:04:47;;;;;;;;;;;;;;;17.83;42.89;104355.44;6287055;22;20319;-79
2022/03/19 11:07:13;;;;;;;;;;;;;;;17.83;42.83;104356.34;6312564;22;19967;-78
2022/03/19 11:09:39;;;;;;;;;;;;;;;17.85;42.73;104348.56;6312353;22;20387;-78
2022/03/19 11:12:07;;;;;;;;;;;;;;;17.85;42.71;104352.06;6340120;22;19942;-79
2022/03/19 11:14:34;;;;;;;;;;;;;;;17.84;42.66;104337.28;6312381;22;19933;-79
2022/03/19 11:17:25;;;;;;;;;;;;;;;17.84;42.63;104339.88;6312445;22;19986;-78
2022/03/19 11:19:52;;;;;;;;;;;;;;;17.85;42.33;104344.25;6312919;22;20316;-78
2022/03/19 11:22:17;;;;;;;;;;;;;;;17.85;42.50;104344.25;6312380;22;19918;-79
2022/03/19 11:24:46;;;;;;;;;;;;;;;17.85;42.44;104328.63;6313334;22;20320;-79
2022/03/19 11:27:12;;;;;;;;;;;;;;;17.86;42.54;104322.59;6312345;22;19907;-79
2022/03/19 11:29:38;;;;;;;;;;;;;;;17.86;42.52;104321.72;6286719;22;19926;-79
2022/03/19 11:32:06;;;;;;;;;;;;;;;17.87;42.23;104318.28;6340035;22;19907;-79
2022/03/19 11:34:45;;;;;;;;;;;;;;;17.86;42.25;104320.00;6312471;22;19986;-79
2022/03/19 11:37:10;;;;;;;;;;;;;;;17.87;42.40;104318.28;6288460;22;19911;-79
2022/03/19 11:39:35;;;;;;;;;;;;;;;17.87;42.10;104311.34;6315160;22;19997;-79
2022/03/19 11:42:00;;;;;;;;;;;;;;;17.87;42.25;104306.13;6287373;22;19921;-78
2022/03/19 11:44:27;;;;;;;;;;;;;;;17.87;42.42;104311.34;6312515;22;19910;-78
2022/03/19 11:47:03;;;;;;;;;;;;;;;17.87;42.38;104305.25;6312367;22;19997;-79
2022/03/19 11:49:54;;;;;;;;;;;;;;;17.85;42.30;104302.56;6312328;22;19906;-79
2022/03/19 11:52:26;;;;;;;;;;;;;;;17.87;42.17;104294.81;6312322;22;19907;-79
2022/03/19 11:55:00;;;;;;;;;;;;;;;17.87;42.12;104287.00;6312071;22;19906;-79
2022/03/19 11:57:26;;;;;;;;;;;;;;;17.87;42.10;104285.28;6312973;22;19907;-79
2022/03/19 11:59:57;;;;;;;;;;;;;;;17.86;41.88;104278.31;6312409;22;19937;-79
2022/03/19 12:02:22;;;;;;;;;;;;;;;17.87;42.04;104274.88;6312208;22;19917;-79
2022/03/19 12:04:48;;;;;;;;;;;;;;;17.88;41.99;104270.56;6339605;22;19985;-79
2022/03/19 12:07:34;;;;;;;;;;;;;;;17.89;41.97;104265.41;6340338;22;19959;-79
2022/03/19 12:09:59;;;;;;;;;;;;;;;17.91;42.02;104256.78;6317880;22;20361;-79
2022/03/19 12:12:25;;;;;;;;;;;;;;;17.89;42.05;104260.19;6286239;22;19910;-79
2022/03/19 12:14:50;;;;;;;;;;;;;;;17.89;42.23;104259.31;6286004;22;19919;-78
2022/03/19 12:17:20;;;;;;;;;;;;;;;17.91;42.04;104248.97;6339967;22;19907;-79
2022/03/19 12:19:48;;;;;;;;;;;;;;;17.91;41.95;104248.97;6312987;22;19985;-79
2022/03/19 12:22:24;;;;;;;;;;;;;;;17.91;42.02;104244.63;6339600;22;19998;-79
2022/03/19 12:24:50;;;;;;;;;;;;;;;17.92;42.02;104242.91;6311958;22;19982;-79
2022/03/19 12:27:16;;;;;;;;;;;;;;;17.95;41.82;104243.06;6312326;22;19906;-79
2022/03/19 12:29:41;;;;;;;;;;;;;;;17.93;41.92;104240.38;6311737;22;19921;-79
2022/03/19 12:32:07;;;;;;;;;;;;;;;17.93;42.08;104229.97;6311969;22;19911;-79
2022/03/19 12:34:32;;;;;;;;;;;;;;;17.94;42.01;104234.31;6312359;22;19911;-79
2022/03/19 12:37:03;;;;;;;;;;;;;;;17.96;42.05;104237.00;6312047;22;19964;-79
2022/03/19 12:39:29;;;;;;;;;;;;;;;17.96;42.05;104217.03;6312264;22;19933;-79
2022/03/19 12:41:54;;;;;;;;;;;;;;;17.96;41.98;104213.56;6311748;22;19989;-78
2022/03/19 12:44:26;;;;;;;;;;;;;;;17.98;42.09;104222.34;6339870;22;19911;-78